Time;durP1;ratioP1;P1;durP2;ratioP2;P2;SDS_P1;SDS_P2;PMS_P1;PMS_P2;Temp;Humidity;BMP_temperature;BMP_pressure;BME280_temperature;BME280_humidity;BME280_pressure;Samples;Min_cycle;Max_cycle;Signal;HPM_P1;HPM_P2
2022/12/01 04:02:16;;;;;;;;;;;16.90;50.70;;;;;;5138588;23;45485;-53
2022/12/01 04:04:41;;;;;;;;;;;16.90;50.60;;;;;;4938885;28;44976;-52
2022/12/01 04:07:06;;;;;;;;;;;16.90;50.70;;;;;;4966058;28;45100;-57
2022/12/01 04:09:32;;;;;;;;;;;16.90;50.70;;;;;;4969528;28;45037;-53
2022/12/01 04:14:42;;;;;;;;;;;16.90;50.70;;;;;;4979014;28;45230;-56
2022/12/01 04:17:07;;;;;;;;;;;16.90;50.70;;;;;;4977295;28;45192;-53
2022/12/01 04:19:33;;;;;;;;;;;16.90;50.60;;;;;;4980876;28;45168;-54
2022/12/01 04:21:58;;;;;;;;;;;16.90;50.70;;;;;;4978307;28;45046;-54
2022/12/01 04:24:24;;;;;;;;;;;16.80;50.70;;;;;;4972772;28;45293;-54
2022/12/01 04:26:49;;;;;;;;;;;16.80;50.70;;;;;;4982250;28;46179;-55
2022/12/01 04:29:15;;;;;;;;;;;16.80;50.80;;;;;;4983038;28;44952;-57
2022/12/01 04:31:40;;;;;;;;;;;16.80;50.70;;;;;;4980234;28;45603;-56
2022/12/01 04:34:06;;;;;;;;;;;16.80;50.70;;;;;;4979408;28;45172;-54
2022/12/01 04:36:32;;;;;;;;;;;16.80;50.80;;;;;;4975271;28;45151;-58
2022/12/01 04:38:57;;;;;;;;;;;16.80;50.80;;;;;;4969927;28;44972;-56
2022/12/01 04:41:23;;;;;;;;;;;16.80;50.80;;;;;;4977525;28;45739;-53
2022/12/01 04:43:48;;;;;;;;;;;16.80;50.80;;;;;;4973009;28;46917;-52
2022/12/01 04:46:14;;;;;;;;;;;16.80;50.80;;;;;;4977446;28;45587;-57
2022/12/01 04:48:39;;;;;;;;;;;16.70;50.70;;;;;;4969644;28;45147;-55
2022/12/01 04:51:05;;;;;;;;;;;16.70;50.80;;;;;;4976728;28;45152;-54
2022/12/01 04:53:31;;;;;;;;;;;16.70;50.80;;;;;;4978546;28;45412;-53
2022/12/01 04:55:58;;;;;;;;;;;16.70;50.80;;;;;;4978425;28;45047;-57
2022/12/01 04:58:23;;;;;;;;;;;16.70;50.80;;;;;;4974347;28;45106;-55
2022/12/01 05:00:49;;;;;;;;;;;16.70;50.80;;;;;;4979501;28;45240;-56
2022/12/01 05:03:14;;;;;;;;;;;16.70;50.80;;;;;;4973118;28;45790;-59
2022/12/01 05:05:40;;;;;;;;;;;16.70;50.70;;;;;;4986408;28;44713;-55
2022/12/01 05:08:05;;;;;;;;;;;16.70;50.80;;;;;;4958708;28;44949;-55
2022/12/01 05:10:33;;;;;;;;;;;16.70;50.80;;;;;;4974413;28;45704;-56
2022/12/01 05:12:59;;;;;;;;;;;16.70;50.80;;;;;;4975570;28;45910;-53
2022/12/01 05:15:24;;;;;;;;;;;16.70;50.80;;;;;;4978806;28;45656;-56
2022/12/01 05:17:50;;;;;;;;;;;16.60;50.80;;;;;;4975747;28;44731;-54
2022/12/01 05:23:04;;;;;;;;;;;16.60;50.80;;;;;;4966140;28;46499;-56
2022/12/01 05:25:29;;;;;;;;;;;16.60;50.90;;;;;;4974896;28;45496;-54
2022/12/01 05:27:55;;;;;;;;;;;16.60;50.80;;;;;;4978854;28;45214;-52
2022/12/01 05:30:20;;;;;;;;;;;16.60;50.90;;;;;;4957807;28;44670;-56
2022/12/01 05:32:46;;;;;;;;;;;16.60;50.90;;;;;;4968290;28;45841;-55
2022/12/01 05:35:11;;;;;;;;;;;16.60;50.90;;;;;;4979830;28;45103;-55
2022/12/01 05:37:37;;;;;;;;;;;16.60;50.90;;;;;;4983787;28;46538;-52
2022/12/01 05:40:03;;;;;;;;;;;16.60;50.90;;;;;;4984031;28;45099;-55
2022/12/01 05:42:29;;;;;;;;;;;16.60;50.90;;;;;;4987215;28;46369;-53
2022/12/01 05:44:54;;;;;;;;;;;16.50;50.90;;;;;;4960620;28;45273;-55
2022/12/01 05:47:20;;;;;;;;;;;16.50;50.90;;;;;;4985178;28;45111;-55
2022/12/01 05:49:45;;;;;;;;;;;16.50;50.90;;;;;;4976917;28;45059;-54
2022/12/01 05:52:11;;;;;;;;;;;16.50;50.90;;;;;;4980424;28;45032;-55
2022/12/01 05:54:36;;;;;;;;;;;16.50;50.90;;;;;;4980534;28;45107;-57
2022/12/01 05:57:02;;;;;;;;;;;16.50;51.00;;;;;;4983685;28;45097;-55
2022/12/01 05:59:27;;;;;;;;;;;16.50;50.90;;;;;;4965466;28;45262;-52
2022/12/01 06:01:53;;;;;;;;;;;16.50;51.00;;;;;;4977025;28;45361;-51
2022/12/01 06:04:18;;;;;;;;;;;16.50;51.00;;;;;;4977809;28;44985;-54
2022/12/01 06:06:44;;;;;;;;;;;16.50;51.00;;;;;;4980663;28;44988;-55
2022/12/01 06:09:09;;;;;;;;;;;16.50;51.00;;;;;;4981038;28;45149;-54
2022/12/01 06:11:35;;;;;;;;;;;16.50;51.00;;;;;;4959177;28;45250;-52
2022/12/01 06:14:00;;;;;;;;;;;16.50;51.00;;;;;;4980310;28;44933;-55
2022/12/01 06:16:27;;;;;;;;;;;16.40;50.90;;;;;;4977961;28;45208;-57
2022/12/01 06:18:52;;;;;;;;;;;16.40;50.90;;;;;;4968236;28;44850;-53
2022/12/01 06:21:18;;;;;;;;;;;16.40;51.00;;;;;;4981784;28;45910;-50
2022/12/01 06:23:44;;;;;;;;;;;16.40;51.00;;;;;;4984923;28;45003;-56
2022/12/01 06:26:09;;;;;;;;;;;16.40;50.90;;;;;;4978084;28;45022;-54
2022/12/01 06:28:34;;;;;;;;;;;16.40;50.90;;;;;;4981498;28;45764;-58
2022/12/01 06:31:00;;;;;;;;;;;16.40;51.00;;;;;;4965592;28;45960;-52
2022/12/01 06:33:26;;;;;;;;;;;16.40;51.00;;;;;;4983949;28;45012;-55
2022/12/01 06:35:58;;;;;;;;;;;16.40;51.00;;;;;;4978581;28;45198;-55
2022/12/01 06:38:23;;;;;;;;;;;16.40;51.00;;;;;;4978896;28;44968;-53
2022/12/01 06:40:49;;;;;;;;;;;16.40;51.00;;;;;;4974911;28;46416;-55
2022/12/01 06:43:14;;;;;;;;;;;16.40;51.00;;;;;;4982250;28;45059;-54
2022/12/01 06:45:40;;;;;;;;;;;16.40;51.00;;;;;;4979960;28;44952;-53
2022/12/01 06:48:06;;;;;;;;;;;16.40;51.00;;;;;;4959843;28;45050;-55
2022/12/01 06:50:31;;;;;;;;;;;16.40;51.00;;;;;;4965308;28;45530;-53
2022/12/01 06:52:57;;;;;;;;;;;16.30;51.00;;;;;;4975562;28;44970;-53
2022/12/01 06:55:24;;;;;;;;;;;16.30;51.00;;;;;;4964900;28;44996;-53
2022/12/01 06:57:49;;;;;;;;;;;16.30;51.00;;;;;;4978664;28;46107;-55
2022/12/01 07:00:15;;;;;;;4.30;3.00;;;16.30;51.00;;;;;;4976351;28;46083;-60
2022/12/01 07:02:41;;;;;;;;;;;16.30;50.30;;;;;;4973016;28;45032;-65
2022/12/01 07:05:06;;;;;;;;;;;16.20;46.40;;;;;;4976215;28;44996;-64
2022/12/01 07:07:34;;;;;;;;;;;16.10;45.10;;;;;;4966537;28;46007;-64
2022/12/01 07:09:59;;;;;;;13.70;9.45;;;15.80;44.40;;;;;;4983859;28;46007;-64
2022/12/01 07:12:25;;;;;;;14.93;10.40;;;15.50;46.00;;;;;;4967669;28;44849;-65
2022/12/01 07:14:51;;;;;;;14.80;10.07;;;15.40;46.10;;;;;;4933870;28;45015;-65
2022/12/01 07:17:16;;;;;;;16.13;10.13;;;15.10;45.30;;;;;;4974556;28;45107;-65
2022/12/01 07:19:41;;;;;;;;;;;14.90;46.40;;;;;;4982446;28;45530;-62
2022/12/01 07:22:07;;;;;;;;;;;15.00;45.30;;;;;;4980366;28;44959;-62
2022/12/01 07:24:32;;;;;;;;;;;15.10;46.70;;;;;;4970267;28;45120;-63
2022/12/01 07:26:58;;;;;;;;;;;15.30;47.20;;;;;;4967520;28;44978;-64
2022/12/01 07:29:23;;;;;;;;;;;15.60;46.60;;;;;;4983680;28;46379;-63
2022/12/01 07:31:49;;;;;;;;;;;15.80;46.30;;;;;;4960669;28;44836;-63
2022/12/01 07:34:14;;;;;;;;;;;16.10;46.10;;;;;;4981307;28;44926;-61
2022/12/01 07:36:40;;;;;;;;;;;16.30;46.00;;;;;;4951354;28;44964;-62
2022/12/01 07:39:06;;;;;;;;;;;16.50;45.80;;;;;;4982419;28;45649;-62
2022/12/01 07:41:32;;;;;;;;;;;16.70;45.60;;;;;;4981410;28;45307;-65
2022/12/01 07:43:58;;;;;;;;;;;16.90;45.60;;;;;;4942378;28;44939;-60
2022/12/01 07:46:24;;;;;;;;;;;17.10;45.40;;;;;;4973731;28;44966;-59
2022/12/01 07:48:49;;;;;;;;;;;17.30;45.30;;;;;;4961007;28;46307;-61
2022/12/01 07:51:15;;;;;;;;;;;17.50;45.20;;;;;;4963373;28;45084;-61
2022/12/01 07:53:41;;;;;;;;;;;17.60;45.10;;;;;;4972199;28;45312;-61
2022/12/01 07:56:06;;;;;;;;;;;17.80;45.00;;;;;;4967796;28;44928;-60
2022/12/01 07:58:32;;;;;;;;;;;18.00;45.00;;;;;;4951204;28;47105;-60
2022/12/01 08:00:57;;;;;;;;;;;18.10;45.00;;;;;;4961674;28;45170;-60
2022/12/01 08:03:23;;;;;;;;;;;18.10;44.90;;;;;;4983073;28;45363;-61
2022/12/01 08:05:58;;;;;;;;;;;18.20;45.00;;;;;;4960206;28;44997;-59
2022/12/01 08:08:25;;;;;;;;;;;18.20;45.10;;;;;;4957334;28;45420;-60
2022/12/01 08:10:50;;;;;;;;;;;18.30;45.10;;;;;;4960648;28;44944;-60
2022/12/01 08:13:16;;;;;;;;;;;18.40;45.00;;;;;;4973494;28;45120;-60
2022/12/01 08:15:42;;;;;;;;;;;18.60;45.00;;;;;;4962616;28;45063;-59
2022/12/01 08:18:07;;;;;;;;;;;18.70;44.80;;;;;;4974348;28;45452;-60
2022/12/01 08:20:33;;;;;;;;;;;18.90;44.70;;;;;;4977065;28;45185;-60
2022/12/01 08:22:59;;;;;;;;;;;19.00;44.60;;;;;;4978028;28;45069;-62
2022/12/01 08:25:24;;;;;;;;;;;19.20;44.50;;;;;;4977679;28;44906;-60
2022/12/01 08:27:50;;;;;;;;;;;19.30;44.30;;;;;;4965130;28;46289;-61
2022/12/01 08:30:16;;;;;;;;;;;19.50;44.30;;;;;;4980946;28;45195;-61
2022/12/01 08:32:41;;;;;;;;;;;19.60;44.20;;;;;;4965075;28;45265;-60
2022/12/01 08:35:07;;;;;;;;;;;19.80;44.00;;;;;;4973096;28;44997;-61
2022/12/01 08:37:32;;;;;;;;;;;19.90;43.90;;;;;;4970526;28;45239;-60
2022/12/01 08:39:58;;;;;;;;;;;20.00;43.80;;;;;;4978514;28;44875;-61
2022/12/01 08:42:23;;;;;;;;;;;20.10;43.60;;;;;;4980839;28;45286;-62
2022/12/01 08:44:49;;;;;;;;;;;20.20;43.50;;;;;;4983890;28;45461;-61
2022/12/01 08:47:15;;;;;;;;;;;20.30;43.50;;;;;;5033060;22;46458;-60
2022/12/01 08:49:40;;;;;;;;;;;20.30;43.30;;;;;;4990263;28;44768;-58
2022/12/01 08:52:06;;;;;;;;;;;20.30;43.60;;;;;;5013137;28;44882;-60
2022/12/01 08:54:31;;;;;;;;;;;20.30;43.70;;;;;;5009542;28;44822;-59
2022/12/01 08:56:57;;;;;;;;;;;20.40;43.60;;;;;;5017561;28;45077;-60
2022/12/01 08:59:22;;;;;;;;;;;20.50;43.50;;;;;;5024481;28;44704;-60
2022/12/01 09:01:51;;;;;;;;;;;20.70;43.40;;;;;;5014863;28;44941;-61
2022/12/01 09:04:17;;;;;;;;;;;20.80;43.30;;;;;;5018779;28;44986;-60
2022/12/01 09:06:42;;;;;;;;;;;20.90;43.10;;;;;;5019313;28;45920;-60
2022/12/01 09:09:11;;;;;;;;;;;21.10;43.00;;;;;;5011755;28;44744;-61
2022/12/01 09:11:36;;;;;;;;;;;21.20;42.90;;;;;;5004486;28;45487;-60
2022/12/01 09:14:02;;;;;;;;;;;21.30;42.70;;;;;;5002145;28;44911;-61
2022/12/01 09:16:27;;;;;;;;;;;21.40;42.70;;;;;;5018544;28;45333;-61
2022/12/01 09:18:55;;;;;;;;;;;21.50;42.70;;;;;;5005229;28;44757;-61
2022/12/01 09:21:22;;;;;;;;;;;21.50;42.60;;;;;;5001821;28;45653;-60
2022/12/01 09:23:50;;;;;;;;;;;21.60;42.60;;;;;;5023550;28;44863;-62
2022/12/01 09:26:17;;;;;;;;;;;21.70;42.60;;;;;;5017696;28;46923;-60
2022/12/01 09:28:43;;;;;;;;;;;21.80;42.50;;;;;;5026441;28;44773;-61
2022/12/01 09:31:09;;;;;;;;;;;21.90;42.50;;;;;;5005481;28;45282;-61
2022/12/01 09:33:35;;;;;;;;;;;22.00;42.40;;;;;;5014289;28;44932;-61
2022/12/01 09:36:01;;;;;;;;;;;22.00;42.30;;;;;;5004724;28;46874;-62
2022/12/01 09:38:29;;;;;;;;;;;22.10;42.20;;;;;;5015563;28;44760;-62
2022/12/01 09:40:55;;;;;;;;;;;22.20;42.20;;;;;;5021767;28;44895;-61
2022/12/01 09:43:28;;;;;;;;;;;22.30;42.10;;;;;;5024938;28;44840;-60
2022/12/01 09:45:55;;;;;;;;;;;22.30;42.70;;;;;;5001902;28;45360;-60
2022/12/01 09:48:44;;;;;;;;;;;22.40;42.00;;;;;;5003258;28;44882;-59
2022/12/01 09:51:19;;;;;;;;;;;22.50;42.00;;;;;;4998395;28;45110;-61
2022/12/01 09:53:45;;;;;;;;;;;22.50;41.90;;;;;;4999444;28;45017;-63
2022/12/01 09:56:23;;;;;;;;;;;22.60;41.90;;;;;;4981684;28;45073;-61
2022/12/01 09:58:52;;;;;;;;;;;22.60;41.70;;;;;;5009656;28;44634;-62
2022/12/01 10:01:18;;;;;;;;;;;22.60;41.60;;;;;;5021936;28;44965;-60
2022/12/01 10:03:47;;;;;;;;;;;22.50;41.80;;;;;;5004685;28;44986;-61
2022/12/01 10:06:18;;;;;;;;;;;22.50;42.00;;;;;;5005262;28;45515;-61
2022/12/01 10:09:00;;;;;;;;;;;22.60;42.00;;;;;;5021819;28;44737;-61
2022/12/01 10:11:30;;;;;;;;;;;22.60;41.90;;;;;;5017195;28;44988;-59
2022/12/01 10:13:56;;;;;;;;;;;22.80;41.90;;;;;;5018973;28;45453;-64
2022/12/01 10:16:25;;;;;;;;;;;22.80;41.80;;;;;;4983659;28;46406;-61
2022/12/01 10:18:56;;;;;;;;;;;22.90;41.70;;;;;;5004638;28;44763;-60
2022/12/01 10:21:28;;;;;;;;;;;23.00;41.60;;;;;;5010070;28;45221;-61
2022/12/01 10:24:11;;;;;;;;;;;23.10;41.60;;;;;;5021458;28;44930;-60
2022/12/01 10:26:41;;;;;;;;;;;23.10;41.50;;;;;;5018755;28;45421;-59
2022/12/01 10:29:09;;;;;;;;;;;23.20;41.40;;;;;;4996222;28;45068;-60
2022/12/01 10:31:39;;;;;;;;;;;23.30;41.40;;;;;;5008965;28;44953;-61
2022/12/01 10:34:06;;;;;;;;;;;23.30;41.20;;;;;;4986197;28;45328;-58
2022/12/01 10:36:32;;;;;;;;;;;23.40;41.20;;;;;;5019954;28;45964;-59
2022/12/01 10:38:57;;;;;;;;;;;23.50;41.10;;;;;;4989072;28;44843;-60
2022/12/01 10:41:23;;;;;;;;;;;23.50;41.10;;;;;;5006070;28;44722;-61
2022/12/01 10:43:52;;;;;;;;;;;23.50;40.90;;;;;;5019488;28;44870;-60
2022/12/01 10:46:20;;;;;;;;;;;23.60;41.00;;;;;;4993912;28;45764;-61
2022/12/01 10:48:59;;;;;;;;;;;23.70;40.90;;;;;;4990029;28;45291;-60
2022/12/01 10:51:25;;;;;;;;;;;23.70;40.80;;;;;;4991627;28;44672;-61
2022/12/01 10:53:56;;;;;;;;;;;23.80;40.80;;;;;;5007245;28;44744;-61
2022/12/01 10:56:21;;;;;;;;;;;23.90;40.80;;;;;;4981803;28;45242;-61
2022/12/01 10:58:48;;;;;;;;;;;23.90;40.70;;;;;;5022368;28;44806;-62
2022/12/01 11:01:26;;;;;;;;;;;24.00;40.70;;;;;;5022668;28;44955;-61
2022/12/01 11:04:00;;;;;;;;;;;24.00;40.60;;;;;;5002889;28;44845;-61
2022/12/01 11:06:29;;;;;;;;;;;24.10;40.70;;;;;;4992718;28;47149;-60
2022/12/01 11:08:55;;;;;;;;;;;24.10;40.50;;;;;;4988911;28;44762;-61
2022/12/01 11:11:26;;;;;;;;;;;24.10;40.50;;;;;;5003217;28;46050;-60
2022/12/01 11:13:52;;;;;;;;;;;24.10;40.60;;;;;;5010270;28;44771;-61
2022/12/01 11:16:35;;;;;;;;;;;24.10;40.60;;;;;;4984726;28;45034;-62
2022/12/01 11:19:07;;;;;;;;;;;24.10;40.50;;;;;;5022554;28;45032;-63
2022/12/01 11:21:32;;;;;;;;;;;24.10;40.60;;;;;;5009093;28;45005;-60
2022/12/01 11:23:58;;;;;;;;;;;24.10;40.60;;;;;;5004009;28;44894;-62
2022/12/01 11:26:27;;;;;;;;;;;24.10;40.60;;;;;;5004441;28;46164;-61
2022/12/01 11:28:52;;;;;;;;;;;24.10;41.00;;;;;;5026836;28;44649;-62
2022/12/01 11:31:18;;;;;;;;;;;24.20;40.50;;;;;;5023898;28;44631;-61
2022/12/01 11:33:51;;;;;;;;;;;24.20;40.50;;;;;;5023211;28;44884;-61
2022/12/01 11:36:21;;;;;;;;;;;24.20;40.40;;;;;;4974316;28;46846;-61
2022/12/01 11:38:46;;;;;;;;;;;24.20;40.60;;;;;;5018722;28;44968;-63
2022/12/01 11:41:28;;;;;;;;;;;24.20;40.40;;;;;;4995696;28;44906;-61
2022/12/01 11:43:55;;;;;;;;;;;24.20;40.40;;;;;;5015419;28;44963;-60
2022/12/01 11:46:26;;;;;;;;;;;24.20;40.40;;;;;;4998251;28;47003;-61
2022/12/01 11:48:56;;;;;;;;;;;24.30;40.30;;;;;;4981774;28;44683;-62
2022/12/01 11:51:30;;;;;;;;;;;24.30;40.40;;;;;;4982897;28;44897;-63
2022/12/01 11:54:11;;;;;;;;;;;24.30;40.40;;;;;;4986057;28;45819;-56
2022/12/01 11:56:36;;;;;;;;;;;24.30;40.30;;;;;;4985282;28;45673;-51
2022/12/01 11:59:03;;;;;;;;;;;24.30;40.50;;;;;;4981038;28;44638;-58
2022/12/01 12:01:31;;;;;;;;;;;24.30;40.50;;;;;;4962870;28;44950;-51
2022/12/01 12:04:07;;;;;;;;;;;24.30;40.60;;;;;;4981004;28;45766;-54
2022/12/01 12:06:37;;;;;;;;;;;24.30;40.70;;;;;;4973351;28;45773;-54
2022/12/01 12:09:11;;;;;;;;;;;24.30;40.60;;;;;;4976344;28;44694;-58
2022/12/01 12:11:59;;;;;;;;;;;24.30;40.70;;;;;;4978705;28;44980;-53
2022/12/01 12:14:37;;;;;;;;;;;24.40;40.80;;;;;;4948481;28;44763;-54
2022/12/01 12:17:06;;;;;;;;;;;24.40;40.80;;;;;;4979130;28;45224;-54
2022/12/01 12:19:37;;;;;;;;;;;24.40;40.80;;;;;;4983373;28;44832;-52
2022/12/01 12:22:21;;;;;;;;;;;24.40;40.80;;;;;;4979290;28;46409;-55
2022/12/01 12:25:06;;;;;;;;;;;24.40;40.80;;;;;;4987132;28;45699;-53
2022/12/01 12:27:48;;;;;;;;;;;24.40;40.80;;;;;;4982668;28;46036;-52
2022/12/01 12:30:16;;;;;;;;;;;24.40;40.80;;;;;;4977201;28;44855;-52
2022/12/01 12:32:49;;;;;;;;;;;24.40;40.70;;;;;;4977399;28;44941;-56
2022/12/01 12:35:33;;;;;;;;;;;24.40;40.80;;;;;;4979323;28;45028;-55
2022/12/01 12:38:03;;;;;;;;;;;24.40;40.70;;;;;;4973933;28;45056;-56
2022/12/01 12:40:35;;;;;;;;;;;24.50;40.70;;;;;;4969461;28;44976;-54
2022/12/01 12:43:22;;;;;;;;;;;24.50;40.80;;;;;;4982860;28;44965;-56
2022/12/01 12:46:10;;;;;;;;;;;24.50;40.80;;;;;;4994914;28;45465;-54
2022/12/01 12:48:35;;;;;;;;;;;24.50;40.80;;;;;;4984476;28;45819;-55
2022/12/01 12:51:16;;;;;;;;;;;24.40;40.80;;;;;;5009346;28;44989;-54
2022/12/01 12:53:47;;;;;;;;;;;24.50;40.90;;;;;;5011800;28;44795;-56
2022/12/01 12:56:12;;;;;;;;;;;24.40;40.90;;;;;;5002735;28;44689;-60
2022/12/01 12:58:40;;;;;;;;;;;24.40;40.90;;;;;;5012063;28;45540;-52
2022/12/01 13:01:08;;;;;;;;;;;24.40;41.00;;;;;;4999957;28;44916;-55
2022/12/01 13:03:52;;;;;;;;;;;24.40;41.00;;;;;;5003566;28;44723;-57
2022/12/01 13:06:35;;;;;;;;;;;24.40;41.00;;;;;;5008045;28;45093;-61
2022/12/01 13:09:03;;;;;;;;;;;24.40;41.00;;;;;;4989608;28;46390;-55
2022/12/01 13:11:29;;;;;;;;;;;24.40;41.10;;;;;;5023645;28;44543;-53
2022/12/01 13:14:05;;;;;;;;;;;24.40;41.10;;;;;;5001827;28;45317;-55
2022/12/01 13:16:34;;;;;;;;;;;24.50;41.10;;;;;;5006429;28;45448;-55
2022/12/01 13:19:04;;;;;;;;;;;24.50;41.10;;;;;;5005111;28;45082;-51
2022/12/01 13:21:35;;;;;;;;;;;24.50;41.10;;;;;;5010873;28;44770;-58
2022/12/01 13:24:00;;;;;;;;;;;24.50;41.10;;;;;;4996940;28;45164;-56
2022/12/01 13:26:26;;;;;;;;;;;24.50;41.10;;;;;;4974981;28;44986;-56
2022/12/01 13:28:52;;;;;;;;;;;24.50;41.10;;;;;;5006154;28;45239;-55
2022/12/01 13:31:18;;;;;;;;;;;24.60;41.10;;;;;;5006717;28;45000;-52
2022/12/01 13:33:45;;;;;;;;;;;24.60;41.20;;;;;;4995297;28;45328;-55
2022/12/01 13:36:10;;;;;;;;;;;24.60;41.10;;;;;;4998352;28;45029;-63
2022/12/01 13:38:36;;;;;;;;;;;24.60;41.10;;;;;;5000979;28;45342;-53
2022/12/01 13:41:17;;;;;;;;;;;24.70;41.10;;;;;;4998856;28;45098;-58
2022/12/01 13:43:48;;;;;;;;;;;24.70;41.10;;;;;;4999957;28;45012;-53
2022/12/01 13:46:30;;;;;;;;;;;24.70;41.00;;;;;;5009031;28;44940;-61
2022/12/01 13:48:56;;;;;;;;;;;24.70;41.00;;;;;;5022944;28;45982;-53
2022/12/01 13:51:22;;;;;;;;;;;24.70;41.00;;;;;;5028285;28;44842;-55
2022/12/01 13:53:55;;;;;;;;;;;24.80;41.10;;;;;;4995183;28;45169;-57
2022/12/01 13:56:25;;;;;;;;;;;24.70;41.00;;;;;;5009173;28;44909;-60
2022/12/01 13:58:51;;;;;;;;;;;24.70;41.00;;;;;;5008439;28;48231;-61
2022/12/01 14:01:19;;;;;;;;;;;24.70;41.00;;;;;;5025659;28;44834;-58
2022/12/01 14:03:55;;;;;;;;;;;24.70;41.10;;;;;;5027102;28;45596;-53
2022/12/01 14:06:20;;;;;;;;;;;24.70;41.10;;;;;;5030305;28;45249;-54
2022/12/01 14:08:46;;;;;;;;;;;24.70;41.00;;;;;;5036296;28;45189;-56
2022/12/01 14:11:18;;;;;;;;;;;24.70;41.10;;;;;;5020602;28;44880;-55
2022/12/01 14:13:52;;;;;;;;;;;24.70;41.10;;;;;;5033841;28;44681;-51
2022/12/01 14:16:17;;;;;;;;;;;24.70;41.20;;;;;;5030056;28;45672;-54
2022/12/01 14:18:49;;;;;;;;;;;24.70;41.20;;;;;;5024920;28;45462;-59
2022/12/01 14:21:14;;;;;;;;;;;24.70;41.20;;;;;;5026228;28;44759;-56
2022/12/01 14:23:59;;;;;;;;;;;24.70;41.30;;;;;;5007518;28;44631;-56
2022/12/01 14:26:27;;;;;;;;;;;24.70;41.30;;;;;;4989167;28;44921;-55
2022/12/01 14:28:58;;;;;;;;;;;24.70;41.30;;;;;;5006448;28;46364;-56
2022/12/01 14:31:33;;;;;;;;;;;24.70;41.40;;;;;;5022263;28;44776;-58
2022/12/01 14:34:13;;;;;;;;;;;24.80;41.40;;;;;;5018696;28;44847;-55
2022/12/01 14:36:43;;;;;;;;;;;24.80;41.30;;;;;;5021964;28;44727;-54
2022/12/01 14:39:16;;;;;;;;;;;24.80;41.30;;;;;;5011426;28;45103;-60
2022/12/01 14:41:44;;;;;;;;;;;24.80;41.40;;;;;;5020236;28;45021;-59
2022/12/01 14:44:24;;;;;;;;;;;24.80;41.40;;;;;;4996891;28;45015;-53
2022/12/01 14:47:01;;;;;;;;;;;24.80;41.40;;;;;;5002768;28;44921;-55
2022/12/01 14:49:33;;;;;;;;;;;24.80;41.30;;;;;;5024891;28;45940;-59
2022/12/01 14:52:06;;;;;;;;;;;24.80;41.30;;;;;;5024385;28;44814;-53
2022/12/01 14:54:33;;;;;;;;;;;24.80;41.30;;;;;;5023769;28;45381;-56
2022/12/01 14:57:00;;;;;;;;;;;24.90;41.40;;;;;;5000539;28;44892;-53
2022/12/01 14:59:25;;;;;;;;;;;24.90;41.30;;;;;;5023735;28;44973;-56
2022/12/01 15:01:52;;;;;;;;;;;24.90;41.40;;;;;;5004123;28;46124;-53
2022/12/01 15:04:18;;;;;;;;;;;24.90;41.40;;;;;;5019454;28;44964;-58
2022/12/01 15:06:43;;;;;;;;;;;24.90;41.30;;;;;;5004659;28;45149;-62
2022/12/01 15:09:16;;;;;;;;;;;24.90;41.30;;;;;;5008449;28;46223;-59
2022/12/01 15:11:55;;;;;;;;;;;25.00;41.30;;;;;;5003372;28;44892;-57
2022/12/01 15:14:27;;;;;;;;;;;25.00;41.30;;;;;;5024827;28;45123;-59
2022/12/01 15:16:53;;;;;;;;;;;25.00;41.30;;;;;;5008004;28;44731;-55
2022/12/01 15:19:37;;;;;;;;;;;25.00;41.30;;;;;;5017721;28;45734;-58
2022/12/01 15:22:21;;;;;;;;;;;25.00;41.30;;;;;;5022606;28;44685;-57
2022/12/01 15:24:47;;;;;;;;;;;25.00;41.40;;;;;;5006086;28;45133;-51
2022/12/01 15:27:31;;;;;;;;;;;25.10;41.50;;;;;;5024548;28;44890;-54
2022/12/01 15:30:02;;;;;;;;;;;25.10;41.40;;;;;;5005011;28;45207;-58
2022/12/01 15:32:27;;;;;;;;;;;25.10;41.40;;;;;;5003498;28;45042;-51
2022/12/01 15:34:53;;;;;;;;;;;25.10;41.30;;;;;;5019260;28;44846;-54
2022/12/01 15:37:22;;;;;;;;;;;25.10;41.40;;;;;;5002334;28;45223;-58
2022/12/01 15:39:48;;;;;;;;;;;25.10;41.30;;;;;;5006715;28;45168;-56
2022/12/01 15:42:21;;;;;;;;;;;25.10;41.30;;;;;;4990682;28;44859;-58
2022/12/01 15:44:55;;;;;;;;;;;25.10;41.40;;;;;;5006635;28;44982;-56
2022/12/01 15:47:30;;;;;;;;;;;25.10;41.30;;;;;;5007464;28;45091;-56
2022/12/01 15:49:55;;;;;;;;;;;25.10;41.40;;;;;;5024356;28;45958;-59
2022/12/01 15:52:21;;;;;;;;;;;25.10;41.40;;;;;;5017856;28;45003;-56
2022/12/01 15:54:46;;;;;;;;;;;25.10;41.40;;;;;;5025971;28;44883;-52
2022/12/01 15:57:14;;;;;;;;;;;25.10;41.40;;;;;;5002972;28;45065;-58
2022/12/01 15:59:40;;;;;;;;;;;25.10;41.40;;;;;;5002986;28;45333;-54
2022/12/01 16:02:12;;;;;;;;;;;25.10;41.40;;;;;;5001185;28;44857;-55
2022/12/01 16:04:38;;;;;;;;;;;25.10;41.40;;;;;;5005318;28;44735;-57
2022/12/01 16:07:05;;;;;;;;;;;25.10;41.50;;;;;;4998414;28;44999;-52
2022/12/01 16:09:33;;;;;;;;;;;25.10;41.50;;;;;;5026561;28;46099;-56
2022/12/01 16:12:25;;;;;;;;;;;25.10;41.40;;;;;;5023791;28;44901;-56
2022/12/01 16:14:52;;;;;;;;;;;25.10;41.50;;;;;;5009106;28;44730;-54
2022/12/01 16:17:17;;;;;;;;;;;25.10;41.50;;;;;;5018577;28;44763;-57
2022/12/01 16:19:44;;;;;;;;;;;25.10;41.50;;;;;;5020903;28;45699;-55
2022/12/01 16:22:09;;;;;;;;;;;25.00;41.50;;;;;;5021432;28;44883;-53
2022/12/01 16:24:36;;;;;;;;;;;25.00;41.50;;;;;;5000394;28;45872;-54
2022/12/01 16:27:20;;;;;;;;;;;24.90;41.60;;;;;;5023869;28;44862;-56
2022/12/01 16:29:50;;;;;;;;;;;24.80;41.80;;;;;;5020817;28;45331;-55
2022/12/01 16:32:36;;;;;;;;;;;24.70;42.00;;;;;;5002136;28;45075;-53
2022/12/01 16:35:03;;;;;;;;;;;24.50;42.10;;;;;;5023317;28;44634;-57
2022/12/01 16:37:28;;;;;;;;;;;24.40;42.40;;;;;;5018175;28;44972;-56
2022/12/01 16:39:54;;;;;;;;;;;24.40;42.60;;;;;;5023377;28;45877;-57
2022/12/01 16:42:22;;;;;;;;;;;24.30;42.70;;;;;;5020242;28;44843;-57
2022/12/01 16:44:48;;;;;;;;;;;24.20;42.60;;;;;;5004148;28;44847;-54
2022/12/01 16:47:23;;;;;;;;;;;24.20;42.70;;;;;;5025777;28;44763;-57
2022/12/01 16:49:49;;;;;;;;;;;24.10;42.70;;;;;;5024621;28;46415;-54
2022/12/01 16:52:14;;;;;;;;;;;24.00;42.90;;;;;;5015634;28;44892;-61
2022/12/01 16:54:40;;;;;;;;;;;23.90;43.00;;;;;;5020835;28;44933;-54
2022/12/01 16:57:06;;;;;;;;;;;23.80;43.10;;;;;;5018847;28;45174;-60
2022/12/01 16:59:31;;;;;;;;;;;23.80;43.30;;;;;;5018109;28;46113;-57
2022/12/01 17:01:57;;;;;;;;;;;23.70;43.50;;;;;;5014316;28;44945;-62
2022/12/01 17:04:24;;;;;;;;;;;23.60;43.50;;;;;;5009637;28;45177;-56
2022/12/01 17:06:51;;;;;;;;;;;23.50;43.60;;;;;;4999675;28;44863;-61
2022/12/01 17:09:16;;;;;;;;;;;23.50;43.70;;;;;;5014259;28;46141;-55
2022/12/01 17:11:42;;;;;;;;;;;23.50;43.80;;;;;;5011065;28;44734;-60
2022/12/01 17:14:07;;;;;;;;;;;23.40;43.90;;;;;;5001485;28;44949;-57
2022/12/01 17:16:33;;;;;;;;;;;23.30;44.00;;;;;;5023187;28;44857;-57
2022/12/01 17:18:59;;;;;;;;;;;23.20;44.10;;;;;;5002537;28;45043;-54
2022/12/01 17:21:28;;;;;;;;;;;23.20;44.20;;;;;;5019162;28;44642;-60
2022/12/01 17:23:53;;;;;;;;;;;23.10;44.20;;;;;;5021662;28;45011;-58
2022/12/01 17:26:19;;;;;;;;;;;23.00;44.40;;;;;;5020785;28;44989;-62
2022/12/01 17:28:45;;;;;;;;;;;22.90;44.50;;;;;;5026236;28;45143;-56
2022/12/01 17:31:10;;;;;;;;;;;22.90;44.50;;;;;;5009757;28;45055;-65
2022/12/01 17:33:36;;;;;;;;;;;22.80;44.60;;;;;;4991562;28;44897;-54
2022/12/01 17:36:20;;;;;;;;;;;22.70;44.70;;;;;;5020718;28;45269;-61
2022/12/01 17:38:45;;;;;;;;;;;22.70;44.80;;;;;;5023938;28;45834;-64
2022/12/01 17:41:16;;;;;;;;;;;22.60;44.90;;;;;;5018185;28;44825;-56
2022/12/01 17:43:41;;;;;;;;;;;22.50;44.80;;;;;;5012655;28;45229;-55
2022/12/01 17:46:07;;;;;;;;;;;22.50;45.00;;;;;;5022608;28;44669;-56
2022/12/01 17:48:36;;;;;;;;;;;22.40;45.00;;;;;;5024410;28;46410;-55
2022/12/01 17:51:02;;;;;;;;;;;22.40;45.10;;;;;;5009456;28;44849;-60
2022/12/01 17:53:27;;;;;;;;;;;22.30;45.20;;;;;;5020175;28;45138;-58
2022/12/01 17:55:53;;;;;;;;;;;22.30;45.30;;;;;;5018231;28;45147;-53
2022/12/01 17:58:20;;;;;;;;;;;22.20;45.30;;;;;;4999194;28;46750;-57
2022/12/01 18:00:49;;;;;;;;;;;22.10;45.40;;;;;;5020363;28;44783;-58
2022/12/01 18:03:14;;;;;;;;;;;22.10;45.50;;;;;;4997540;28;45288;-59
2022/12/01 18:05:40;;;;;;;;;;;22.00;45.60;;;;;;5007289;28;44779;-54
2022/12/01 18:08:05;;;;;;;;;;;22.00;45.60;;;;;;5023279;28;45731;-56
2022/12/01 18:10:31;;;;;;;;;;;22.00;45.70;;;;;;5025986;28;44733;-56
2022/12/01 18:12:57;;;;;;;;;;;21.90;45.70;;;;;;5019885;28;44943;-64
2022/12/01 18:15:23;;;;;;;;;;;21.90;45.90;;;;;;5008373;28;45288;-63
2022/12/01 18:17:49;;;;;;;;;;;21.80;45.80;;;;;;5015609;28;45913;-58
2022/12/01 18:20:15;;;;;;;;;;;21.80;45.90;;;;;;5016020;28;44942;-53
2022/12/01 18:22:40;;;;;;;;;;;21.70;46.00;;;;;;5021218;28;45012;-55
2022/12/01 18:25:06;;;;;;;;;;;21.60;46.10;;;;;;5002907;28;45063;-59
2022/12/01 18:27:32;;;;;;;;;;;21.60;46.20;;;;;;5020097;28;47131;-58
2022/12/01 18:29:57;;;;;;;;;;;21.60;46.20;;;;;;5011709;28;45043;-63